Time;durP1;ratioP1;P1;durP2;ratioP2;P2;SDS_P1;SDS_P2;PMS_P1;PMS_P2;Temp;Humidity;BMP_temperature;BMP_pressure;BME280_temperature;BME280_humidity;BME280_pressure;Samples;Min_cycle;Max_cycle;Signal;HPM_P1;HPM_P2
2022/10/10 00:01:23;;;;;;;7.53;1.80;;;14.40;99.90;;;;;;5059039;28;20189;-59
2022/10/10 00:03:48;;;;;;;8.45;2.00;;;14.30;99.90;;;;;;5050301;28;20169;-59
2022/10/10 00:06:15;;;;;;;7.97;1.88;;;14.50;99.90;;;;;;5050519;28;20227;-59
2022/10/10 00:08:41;;;;;;;13.25;2.05;;;14.40;99.90;;;;;;5049164;28;20175;-59
2022/10/10 00:11:07;;;;;;;9.45;1.80;;;14.50;99.90;;;;;;5050535;28;20203;-59
2022/10/10 00:13:34;;;;;;;8.93;1.70;;;14.80;99.90;;;;;;5061835;28;20631;-59
2022/10/10 00:16:00;;;;;;;8.50;1.88;;;14.30;99.90;;;;;;5070204;28;20169;-59
2022/10/10 00:18:26;;;;;;;10.68;1.88;;;14.50;99.90;;;;;;5070274;28;20173;-59
2022/10/10 00:20:52;;;;;;;11.43;1.65;;;14.50;99.90;;;;;;5070352;28;20191;-59
2022/10/10 00:23:18;;;;;;;8.57;1.75;;;14.50;99.90;;;;;;5070286;28;20177;-59
2022/10/10 00:25:44;;;;;;;9.85;1.67;;;14.50;99.90;;;;;;5071518;28;20214;-59
2022/10/10 00:28:11;;;;;;;9.00;1.80;;;14.60;99.90;;;;;;5073823;28;20586;-59
2022/10/10 00:30:37;;;;;;;9.25;2.25;;;14.40;99.90;;;;;;5073891;28;20176;-59
2022/10/10 00:33:03;;;;;;;6.53;1.52;;;14.40;99.90;;;;;;5073583;28;20725;-59
2022/10/10 00:35:28;;;;;;;10.25;2.00;;;14.40;99.90;;;;;;5073777;28;20161;-59
2022/10/10 00:37:54;;;;;;;7.38;1.73;;;14.40;99.90;;;;;;5073692;28;20165;-59
2022/10/10 00:40:20;;;;;;;9.02;2.22;;;14.40;99.90;;;;;;5073626;28;20179;-58
2022/10/10 00:42:46;;;;;;;6.88;1.65;;;14.30;99.90;;;;;;5073542;28;20173;-59
2022/10/10 00:45:37;;;;;;;7.85;1.50;;;14.60;99.90;;;;;;5073631;28;20180;-58
2022/10/10 00:48:06;;;;;;;15.05;2.30;;;14.50;99.90;;;;;;5073598;28;20157;-59
2022/10/10 00:50:36;;;;;;;6.57;2.00;;;14.70;99.90;;;;;;5073578;28;20207;-59
2022/10/10 00:53:05;;;;;;;6.63;1.42;;;14.40;99.90;;;;;;5073554;28;20204;-58
2022/10/10 00:55:31;;;;;;;8.80;2.10;;;;;;;;;;5073308;28;20184;-58
2022/10/10 00:57:57;;;;;;;10.40;2.00;;;17.00;99.90;;;;;;5069732;28;20176;-58
2022/10/10 01:00:22;;;;;;;7.38;1.80;;;14.70;99.90;;;;;;5063919;28;20577;-58
2022/10/10 01:02:48;;;;;;;6.97;1.80;;;14.60;99.90;;;;;;5069462;28;20216;-58
2022/10/10 01:05:13;;;;;;;7.25;1.70;;;14.40;99.90;;;;;;5065447;28;20669;-59
2022/10/10 01:07:40;;;;;;;5.20;1.70;;;14.60;99.90;;;;;;5073127;28;20711;-59
2022/10/10 01:10:15;;;;;;;9.75;1.77;;;14.40;99.90;;;;;;5054460;28;20177;-58
2022/10/10 01:13:17;;;;;;;10.07;1.90;;;14.50;99.90;;;;;;5052841;28;20252;-60
2022/10/10 01:15:58;;;;;;;9.13;2.10;;;14.40;99.90;;;;;;5052886;28;20187;-58
2022/10/10 01:18:42;;;;;;;10.07;1.67;;;14.50;99.90;;;;;;5053022;28;20201;-58
2022/10/10 01:21:39;;;;;;;5.70;1.73;;;14.40;99.90;;;;;;5062343;28;20177;-59
2022/10/10 01:24:10;;;;;;;11.40;2.28;;;14.30;99.90;;;;;;5072975;28;20240;-58
2022/10/10 01:27:04;;;;;;;21.60;2.25;;;14.20;99.90;;;;;;5072741;28;20180;-59
2022/10/10 01:29:36;;;;;;;9.35;2.10;;;14.20;99.90;;;;;;5072763;28;20642;-58
2022/10/10 01:32:14;;;;;;;14.25;2.38;;;14.10;99.90;;;;;;5072771;28;20239;-58
2022/10/10 01:34:50;;;;;;;8.30;2.20;;;14.00;99.90;;;;;;5072787;28;20203;-59
2022/10/10 01:37:23;;;;;;;7.53;2.00;;;14.20;99.90;;;;;;5071524;28;20202;-59
2022/10/10 01:39:57;;;;;;;8.05;1.98;;;14.10;99.90;;;;;;5072457;28;20183;-58
2022/10/10 01:42:41;;;;;;;8.52;2.17;;;14.10;99.90;;;;;;5072162;28;20176;-59
2022/10/10 01:45:07;;;;;;;7.32;2.22;;;14.10;99.90;;;;;;5072445;28;20196;-59
2022/10/10 01:47:33;;;;;;;12.05;2.17;;;14.00;99.90;;;;;;5072464;28;20180;-59
2022/10/10 01:50:04;;;;;;;7.00;1.77;;;14.00;99.90;;;;;;5072319;28;20611;-58
2022/10/10 01:53:19;;;;;;;7.00;1.92;;;14.00;99.90;;;;;;5072201;28;20208;-58
2022/10/10 01:55:53;;;;;;;9.75;2.50;;;13.80;99.90;;;;;;5058685;28;20181;-58
2022/10/10 01:59:17;;;;;;;11.43;2.25;;;13.90;99.90;;;;;;5072018;28;20196;-59
2022/10/10 02:02:06;;;;;;;9.07;2.55;;;14.00;99.90;;;;;;5034032;28;20275;-58
2022/10/10 02:04:41;;;;;;;8.20;2.00;;;14.00;99.90;;;;;;5040747;28;20181;-58
2022/10/10 02:07:20;;;;;;;9.88;2.60;;;13.90;99.90;;;;;;5072041;28;20586;-58
2022/10/10 02:09:48;;;;;;;9.15;2.47;;;13.90;99.90;;;;;;5070639;28;20267;-58
2022/10/10 02:12:15;;;;;;;14.13;2.65;;;13.90;99.90;;;;;;5071955;28;20244;-58
2022/10/10 02:14:44;;;;;;;11.43;2.97;;;14.00;99.90;;;;;;5063961;28;20224;-58
2022/10/10 02:17:12;;;;;;;8.98;2.53;;;14.00;99.90;;;;;;5061842;28;20199;-58
2022/10/10 02:19:47;;;;;;;8.95;2.33;;;14.00;99.90;;;;;;5071232;28;20263;-58
2022/10/10 02:22:13;;;;;;;7.65;2.42;;;14.10;99.90;;;;;;5070285;28;20202;-58
2022/10/10 02:24:39;;;;;;;10.90;2.55;;;14.00;99.90;;;;;;5071704;28;20215;-58
2022/10/10 02:27:15;;;;;;;10.98;3.40;;;13.90;99.90;;;;;;5063222;28;20181;-58
2022/10/10 02:29:44;;;;;;;11.73;2.58;;;13.90;99.90;;;;;;5069775;28;20176;-58
2022/10/10 02:32:21;;;;;;;8.27;2.75;;;13.80;99.90;;;;;;5066273;28;20193;-58
2022/10/10 02:34:54;;;;;;;24.33;3.15;;;13.90;99.90;;;;;;5051587;28;20187;-59
2022/10/10 02:37:20;;;;;;;18.17;3.30;;;13.90;99.90;;;;;;5051484;28;20165;-59
2022/10/10 02:39:50;;;;;;;12.32;2.80;;;13.90;99.90;;;;;;5051469;28;20234;-59
2022/10/10 02:42:19;;;;;;;10.90;2.83;;;14.10;99.90;;;;;;5051294;28;20185;-58
2022/10/10 02:44:46;;;;;;;10.90;2.90;;;13.80;99.90;;;;;;5059740;28;20262;-58
2022/10/10 02:47:12;;;;;;;14.38;3.05;;;13.70;99.90;;;;;;5071254;28;20176;-58
2022/10/10 02:49:37;;;;;;;14.73;3.47;;;13.70;99.90;;;;;;5070959;28;20635;-58
2022/10/10 02:52:03;;;;;;;11.05;3.03;;;13.70;99.90;;;;;;5071154;28;20216;-58
2022/10/10 02:54:29;;;;;;;12.15;3.40;;;13.70;99.90;;;;;;5071174;28;20196;-59
2022/10/10 02:56:54;;;;;;;10.55;3.13;;;13.70;99.90;;;;;;5071229;28;20183;-59
2022/10/10 02:59:20;;;;;;;14.02;2.92;;;13.80;99.90;;;;;;5071092;28;20635;-59
2022/10/10 03:01:46;;;;;;;11.43;3.25;;;13.80;99.90;;;;;;5071151;28;20262;-59
2022/10/10 03:04:13;;;;;;;12.32;2.97;;;13.70;99.90;;;;;;5071141;28;20198;-59
2022/10/10 03:06:38;;;;;;;10.15;3.22;;;13.70;99.90;;;;;;5071046;28;20200;-59
2022/10/10 03:09:04;;;;;;;8.18;3.05;;;;;;;;;;5069577;28;20203;-59
2022/10/10 03:11:30;;;;;;;11.95;2.75;;;13.80;99.90;;;;;;5070346;28;20196;-58
2022/10/10 03:13:56;;;;;;;11.00;2.97;;;13.80;99.90;;;;;;5070398;28;20281;-59
2022/10/10 03:16:21;;;;;;;12.05;3.28;;;13.80;99.90;;;;;;5070166;28;20691;-58
2022/10/10 03:18:47;;;;;;;8.27;2.92;;;;;;;;;;5070345;28;20176;-58
2022/10/10 03:21:13;;;;;;;12.43;3.40;;;13.80;99.90;;;;;;5068311;28;20182;-59
2022/10/10 03:23:39;;;;;;;12.77;3.33;;;13.80;99.90;;;;;;5064150;28;20184;-58
2022/10/10 03:26:05;;;;;;;11.10;3.13;;;13.90;99.90;;;;;;5070133;28;20169;-58
2022/10/10 03:28:31;;;;;;;7.75;3.10;;;13.70;99.90;;;;;;5069493;28;20543;-58
2022/10/10 03:30:57;;;;;;;9.75;3.42;;;13.80;99.90;;;;;;5069752;28;20173;-58
2022/10/10 03:33:23;;;;;;;14.57;3.50;;;13.80;99.90;;;;;;5069645;28;20193;-58
2022/10/10 03:35:49;;;;;;;13.20;3.80;;;13.90;99.90;;;;;;5068454;28;20181;-58
2022/10/10 03:38:15;;;;;;;10.55;3.47;;;13.90;99.90;;;;;;5070672;28;20199;-58
2022/10/10 03:40:42;;;;;;;11.13;3.58;;;13.70;99.90;;;;;;5069289;28;20257;-58
2022/10/10 03:43:12;;;;;;;11.30;3.80;;;13.90;99.90;;;;;;5053234;28;20173;-58
2022/10/10 03:45:41;;;;;;;15.23;3.33;;;13.90;99.90;;;;;;5068099;28;20314;-58
2022/10/10 03:48:06;;;;;;;12.75;3.58;;;13.80;99.90;;;;;;5070283;28;20696;-57
2022/10/10 03:50:32;;;;;;;8.60;3.10;;;13.90;99.90;;;;;;5069843;28;20168;-59
2022/10/10 03:52:57;;;;;;;9.63;3.10;;;13.90;99.90;;;;;;5069945;28;20386;-58
2022/10/10 03:55:23;;;;;;;13.88;3.45;;;14.00;99.90;;;;;;5070022;28;20173;-58
2022/10/10 03:57:49;;;;;;;11.85;2.80;;;13.80;99.90;;;;;;5070039;28;20223;-57
2022/10/10 04:00:14;;;;;;;12.23;3.45;;;13.70;99.90;;;;;;5070508;28;20199;-58
2022/10/10 04:02:40;;;;;;;14.90;3.88;;;14.40;99.90;;;;;;5062257;28;20211;-59
2022/10/10 04:05:06;;;;;;;17.05;3.35;;;13.80;99.90;;;;;;5072768;28;20187;-58
2022/10/10 04:07:32;;;;;;;12.85;3.50;;;13.90;99.90;;;;;;5070717;28;20172;-59
2022/10/10 04:09:58;;;;;;;13.55;3.35;;;13.70;99.90;;;;;;5071960;28;20176;-59
2022/10/10 04:12:23;;;;;;;12.17;3.70;;;13.80;99.90;;;;;;5064519;28;20205;-58
2022/10/10 04:14:49;;;;;;;6.63;2.25;;;13.70;99.90;;;;;;5074084;28;20220;-58
2022/10/10 04:17:15;;;;;;;5.18;1.67;;;13.50;99.90;;;;;;5057084;28;20647;-58
2022/10/10 04:19:40;;;;;;;7.82;1.73;;;13.40;99.90;;;;;;5054063;28;20173;-60
2022/10/10 04:22:06;;;;;;;4.00;1.67;;;13.50;99.90;;;;;;5054104;28;20187;-58
2022/10/10 04:24:32;;;;;;;7.80;1.70;;;13.30;99.90;;;;;;5054080;28;20644;-58
2022/10/10 04:26:57;;;;;;;7.17;1.90;;;13.10;99.90;;;;;;5054176;28;20182;-58
2022/10/10 04:29:23;;;;;;;2.93;1.50;;;13.20;99.90;;;;;;5069301;28;20635;-59
2022/10/10 04:31:49;;;;;;;4.20;1.33;;;13.00;99.90;;;;;;5073829;28;20200;-58
2022/10/10 04:34:15;;;;;;;3.00;1.30;;;13.00;99.90;;;;;;5073809;28;20628;-58
2022/10/10 04:36:41;;;;;;;2.67;1.10;;;13.00;99.90;;;;;;5073712;28;20237;-58
2022/10/10 04:39:06;;;;;;;4.23;1.40;;;12.80;99.90;;;;;;5073716;28;20247;-58
2022/10/10 04:41:32;;;;;;;5.47;1.30;;;13.10;99.90;;;;;;5073608;28;20255;-58
2022/10/10 04:43:58;;;;;;;1.80;0.90;;;12.60;99.90;;;;;;5073606;28;20180;-59
2022/10/10 04:46:23;;;;;;;2.77;0.80;;;12.70;99.90;;;;;;5073682;28;20229;-59
2022/10/10 04:48:49;;;;;;;2.57;0.70;;;12.40;99.90;;;;;;5073694;28;20176;-59
2022/10/10 04:51:15;;;;;;;2.87;0.67;;;12.40;99.90;;;;;;5073414;28;20180;-59
2022/10/10 04:53:41;;;;;;;4.33;0.70;;;12.20;99.90;;;;;;5073537;28;20172;-58
2022/10/10 04:56:06;;;;;;;5.33;0.67;;;11.90;99.90;;;;;;5073405;28;20248;-60
2022/10/10 04:58:32;;;;;;;3.77;0.80;;;12.90;99.90;;;;;;5073656;28;20179;-59
2022/10/10 05:00:58;;;;;;;6.60;0.90;;;;;;;;;;5073466;28;20173;-59
2022/10/10 05:03:24;;;;;;;3.57;1.10;;;11.70;99.90;;;;;;5071988;28;20270;-59
2022/10/10 05:05:51;;;;;;;6.13;0.87;;;11.70;99.90;;;;;;5072969;28;20214;-59
2022/10/10 05:08:17;;;;;;;7.57;1.20;;;;;;;;;;5073140;28;20207;-59
2022/10/10 05:10:45;;;;;;;7.00;1.23;;;11.30;99.90;;;;;;5073148;28;20177;-60
2022/10/10 05:13:12;;;;;;;13.83;1.53;;;11.10;99.90;;;;;;5070805;28;20220;-60
2022/10/10 05:15:39;;;;;;;14.20;2.00;;;11.30;99.90;;;;;;5072880;28;20181;-60
2022/10/10 05:18:04;;;;;;;12.20;1.77;;;11.20;99.90;;;;;;5064974;28;20179;-60
2022/10/10 05:20:31;;;;;;;8.03;1.47;;;11.10;99.90;;;;;;5072937;28;20176;-60
2022/10/10 05:22:56;;;;;;;7.73;1.47;;;11.10;99.90;;;;;;5073243;28;20190;-59
2022/10/10 05:25:22;;;;;;;14.97;1.80;;;11.20;99.90;;;;;;5072890;28;20671;-60
2022/10/10 05:27:48;;;;;;;14.70;1.90;;;11.20;99.90;;;;;;5072959;28;20263;-59
2022/10/10 05:30:14;;;;;;;11.93;1.70;;;11.30;99.90;;;;;;5072536;28;20644;-58
2022/10/10 05:32:40;;;;;;;15.70;2.30;;;;;;;;;;5072666;28;20208;-59
2022/10/10 05:35:06;;;;;;;18.37;1.73;;;11.20;99.90;;;;;;5072585;28;20173;-58
2022/10/10 05:37:32;;;;;;;9.53;1.70;;;;;;;;;;5072642;28;20185;-59
2022/10/10 05:39:58;;;;;;;11.77;1.47;;;11.20;99.90;;;;;;5072512;28;20658;-58
2022/10/10 05:42:23;;;;;;;12.07;1.87;;;11.20;99.90;;;;;;5072038;28;20177;-58
2022/10/10 05:44:49;;;;;;;18.67;2.17;;;;;;;;;;5072036;28;20249;-58
2022/10/10 05:47:16;;;;;;;15.10;2.23;;;11.20;99.90;;;;;;5071762;28;20252;-59
2022/10/10 05:49:41;;;;;;;18.43;1.80;;;11.00;99.90;;;;;;5071775;28;20255;-58
2022/10/10 05:52:07;;;;;;;15.33;1.73;;;11.10;99.90;;;;;;5072101;28;20619;-58
2022/10/10 05:54:33;;;;;;;10.13;1.57;;;;;;;;;;5072215;28;20640;-58
2022/10/10 05:56:59;;;;;;;10.97;1.60;;;;;;;;;;5072402;28;20183;-58
2022/10/10 05:59:26;;;;;;;19.73;1.70;;;11.20;99.90;;;;;;5072068;28;20651;-58
2022/10/10 06:01:53;;;;;;;17.20;2.33;;;;;;;;;;5072126;28;20172;-58
2022/10/10 06:04:18;;;;;;;17.10;2.10;;;11.20;99.90;;;;;;5072017;28;20249;-58
2022/10/10 06:06:44;;;;;;;9.90;1.50;;;11.50;99.90;;;;;;5071966;28;20208;-58
2022/10/10 06:09:09;;;;;;;11.33;1.47;;;11.10;99.90;;;;;;5072065;28;20516;-58
2022/10/10 06:11:35;;;;;;;9.80;2.00;;;11.10;99.90;;;;;;5071908;28;20208;-58
2022/10/10 06:14:01;;;;;;;15.17;2.30;;;11.00;99.90;;;;;;5071717;28;20228;-59
2022/10/10 06:16:27;;;;;;;11.60;1.70;;;11.00;99.90;;;;;;5071744;28;20550;-59
2022/10/10 06:18:55;;;;;;;13.37;2.20;;;11.10;99.90;;;;;;5071722;28;20169;-59
2022/10/10 06:21:21;;;;;;;16.70;2.10;;;10.90;99.90;;;;;;5071766;28;20675;-59
2022/10/10 06:23:47;;;;;;;17.30;2.47;;;11.30;99.90;;;;;;5071131;28;20239;-59
2022/10/10 06:26:13;;;;;;;12.27;1.70;;;;;;;;;;5071812;28;20280;-59
2022/10/10 06:28:39;;;;;;;9.50;2.43;;;10.90;99.90;;;;;;5071592;28;20195;-59
2022/10/10 06:31:07;;;;;;;12.83;2.47;;;11.10;99.90;;;;;;5071525;28;20619;-59
2022/10/10 06:33:35;;;;;;;8.77;1.60;;;11.00;99.90;;;;;;5071517;28;20172;-59
2022/10/10 06:36:05;;;;;;;11.07;1.60;;;11.00;99.90;;;;;;5071406;28;20184;-61
2022/10/10 06:38:31;;;;;;;12.53;1.70;;;11.00;99.90;;;;;;5071332;28;20176;-59
2022/10/10 06:41:01;;;;;;;18.67;2.33;;;11.20;99.90;;;;;;5071472;28;20187;-59
2022/10/10 06:43:27;;;;;;;8.87;1.83;;;10.90;99.90;;;;;;5070646;28;20244;-59
2022/10/10 06:45:53;;;;;;;7.90;1.60;;;11.10;99.90;;;;;;5071278;28;20651;-59
2022/10/10 06:48:19;;;;;;;8.87;2.30;;;11.40;99.90;;;;;;5071223;28;20323;-59
2022/10/10 06:51:00;;;;;;;13.17;1.90;;;10.90;99.90;;;;;;5069992;28;20226;-59
2022/10/10 06:53:26;;;;;;;10.77;1.90;;;10.90;99.90;;;;;;5071225;28;20670;-60
2022/10/10 06:55:54;;;;;;;16.73;2.00;;;10.80;99.90;;;;;;5071142;28;20184;-60
2022/10/10 06:58:24;;;;;;;14.83;2.37;;;10.70;99.90;;;;;;5071007;28;20179;-60
2022/10/10 07:00:51;;;;;;;11.80;1.50;;;10.80;99.90;;;;;;5067184;28;20218;-59
2022/10/10 07:03:17;;;;;;;9.77;1.80;;;;;;;;;;5056735;28;20222;-59
2022/10/10 07:05:43;;;;;;;8.93;2.00;;;10.90;99.90;;;;;;5067023;28;20203;-59
2022/10/10 07:08:09;;;;;;;16.63;2.00;;;10.60;99.90;;;;;;5053924;28;20178;-58
2022/10/10 07:10:35;;;;;;;13.83;2.37;;;10.70;99.90;;;;;;5061288;28;20173;-59
2022/10/10 07:13:01;;;;;;;10.17;1.97;;;10.70;99.90;;;;;;5070522;28;20226;-59
2022/10/10 07:15:27;;;;;;;16.50;2.00;;;10.50;99.90;;;;;;5070026;28;20487;-58
2022/10/10 07:17:57;;;;;;;15.60;2.00;;;10.40;99.90;;;;;;5068701;28;20650;-58
2022/10/10 07:20:23;;;;;;;17.20;2.37;;;10.60;99.90;;;;;;5070349;28;20180;-58
2022/10/10 07:22:49;;;;;;;12.47;1.63;;;10.50;99.90;;;;;;5056694;28;20180;-59
2022/10/10 07:25:14;;;;;;;10.47;1.67;;;10.60;99.90;;;;;;5058249;28;20176;-59
2022/10/10 07:27:40;;;;;;;14.17;1.70;;;10.70;99.90;;;;;;5067266;28;20196;-59
2022/10/10 07:30:06;;;;;;;10.10;1.70;;;10.30;99.90;;;;;;5069413;28;20176;-59
2022/10/10 07:32:32;;;;;;;15.77;2.20;;;10.80;99.90;;;;;;5070332;28;20638;-59
2022/10/10 07:34:57;;;;;;;16.03;1.87;;;10.60;99.90;;;;;;5070548;28;20294;-59
2022/10/10 07:37:24;;;;;;;12.27;1.57;;;10.60;99.90;;;;;;5070361;28;20184;-59
2022/10/10 07:39:52;;;;;;;16.73;1.90;;;10.60;99.90;;;;;;5073382;28;20282;-59
2022/10/10 07:42:19;;;;;;;10.43;1.77;;;10.90;99.90;;;;;;5074136;28;20218;-59
2022/10/10 07:44:45;;;;;;;12.87;1.97;;;;;;;;;;5073960;28;20534;-61
2022/10/10 07:47:10;;;;;;;22.30;2.00;;;10.80;99.90;;;;;;5074475;28;20182;-60
2022/10/10 07:49:36;;;;;;;12.40;2.37;;;10.70;99.90;;;;;;5074087;28;20187;-60
2022/10/10 07:52:02;;;;;;;11.97;2.43;;;10.70;99.90;;;;;;5074052;28;20287;-60
2022/10/10 07:54:28;;;;;;;14.10;1.43;;;10.90;99.90;;;;;;5074651;28;20173;-60
2022/10/10 07:56:54;;;;;;;17.10;1.80;;;10.90;99.90;;;;;;5073841;28;20185;-61
2022/10/10 07:59:20;;;;;;;16.03;1.90;;;;;;;;;;5073114;28;20187;-60
2022/10/10 08:01:46;;;;;;;25.60;2.00;;;10.90;99.90;;;;;;5065307;28;20594;-60
2022/10/10 08:04:11;;;;;;;8.90;1.53;;;11.00;99.90;;;;;;5069576;28;20176;-60
2022/10/10 08:06:37;;;;;;;14.43;1.70;;;11.00;99.90;;;;;;5071415;28;20176;-60
2022/10/10 08:09:03;;;;;;;12.17;1.77;;;10.90;99.90;;;;;;5072669;28;20172;-60
2022/10/10 08:11:28;;;;;;;11.77;1.60;;;;;;;;;;5073346;28;20547;-59
2022/10/10 08:13:54;;;;;;;16.33;2.30;;;11.30;99.90;;;;;;5073778;28;20285;-62
2022/10/10 08:16:20;;;;;;;9.20;1.60;;;11.20;99.90;;;;;;5074144;28;20172;-62
2022/10/10 08:18:46;;;;;;;9.03;1.20;;;;;;;;;;5074204;28;20176;-59
2022/10/10 08:21:14;;;;;;;9.57;1.53;;;11.60;99.90;;;;;;5073062;28;20639;-62
2022/10/10 08:23:40;;;;;;;15.70;1.67;;;;;;;;;;5073947;28;20184;-62
2022/10/10 08:26:08;;;;;;;20.47;1.90;;;11.90;99.90;;;;;;5073752;28;20661;-63
2022/10/10 08:28:34;;;;;;;12.63;1.93;;;12.00;99.90;;;;;;5073961;28;20708;-62
2022/10/10 08:31:11;;;;;;;15.80;1.70;;;12.10;99.90;;;;;;5062873;28;20177;-64
2022/10/10 08:33:37;;;;;;;11.63;2.40;;;12.20;99.90;;;;;;5060708;28;20191;-63
2022/10/10 08:36:05;;;;;;;8.80;1.57;;;12.30;99.90;;;;;;5072763;28;20204;-62
2022/10/10 08:38:31;;;;;;;11.97;2.00;;;12.00;99.90;;;;;;5068390;28;20176;-62
2022/10/10 08:40:57;;;;;;;15.20;1.90;;;;;;;;;;5073555;28;20168;-61
2022/10/10 08:43:42;;;;;;;12.00;2.00;;;12.60;99.90;;;;;;5072537;28;20208;-61
2022/10/10 08:46:26;;;;;;;14.07;1.47;;;12.50;99.90;;;;;;5072247;28;20248;-61
2022/10/10 08:48:55;;;;;;;14.00;1.63;;;12.60;99.90;;;;;;5068582;28;20199;-61
2022/10/10 08:51:29;;;;;;;17.07;1.87;;;12.50;99.90;;;;;;5053023;28;20652;-61
2022/10/10 08:54:00;;;;;;;6.60;1.50;;;12.90;99.90;;;;;;5054218;28;20252;-62
2022/10/10 08:56:30;;;;;;;15.47;1.70;;;12.60;99.90;;;;;;5055642;28;20640;-61
2022/10/10 08:59:13;;;;;;;13.20;1.67;;;13.00;99.90;;;;;;5056743;28;20193;-61
2022/10/10 09:01:39;;;;;;;8.40;1.70;;;12.70;99.90;;;;;;5064022;28;20700;-61
2022/10/10 09:04:06;;;;;;;13.70;1.90;;;12.80;99.90;;;;;;5072206;28;20180;-61
2022/10/10 09:06:32;;;;;;;9.27;1.43;;;12.70;99.90;;;;;;5060640;28;20166;-63
2022/10/10 09:09:15;;;;;;;8.87;1.43;;;12.60;99.90;;;;;;5060497;28;20179;-58
2022/10/10 09:12:07;;;;;;;16.23;1.90;;;12.80;99.90;;;;;;5064152;28;20225;-59
2022/10/10 09:15:09;;;;;;;14.80;2.00;;;13.20;99.90;;;;;;5052707;28;20233;-61
2022/10/10 09:17:59;;;;;;;20.77;2.10;;;13.10;99.90;;;;;;5053014;28;20177;-60
2022/10/10 09:20:53;;;;;;;14.03;1.93;;;13.10;99.90;;;;;;5069920;28;20176;-60
2022/10/10 09:23:35;;;;;;;12.60;1.60;;;14.20;99.90;;;;;;5072913;28;20182;-59
2022/10/10 09:26:12;;;;;;;10.67;1.20;;;13.30;99.90;;;;;;5072481;28;20180;-60
2022/10/10 09:28:45;;;;;;;9.20;1.40;;;13.30;99.90;;;;;;5072816;28;20251;-59
2022/10/10 09:31:18;;;;;;;10.77;1.63;;;13.30;99.90;;;;;;5072195;28;20208;-60
2022/10/10 09:34:05;;;;;;;10.40;1.83;;;13.10;99.90;;;;;;5072766;28;20177;-59
2022/10/10 09:36:34;;;;;;;15.87;1.63;;;13.30;99.90;;;;;;5072353;28;20211;-59
2022/10/10 09:39:20;;;;;;;12.07;2.13;;;13.80;99.90;;;;;;5060027;28;20562;-60
2022/10/10 09:41:50;;;;;;;12.10;1.60;;;13.70;99.90;;;;;;5070806;28;20188;-60
2022/10/10 09:44:20;;;;;;;9.07;1.53;;;13.70;99.90;;;;;;5059577;28;20166;-60
2022/10/10 09:46:46;;;;;;;9.13;1.58;;;13.80;99.90;;;;;;5061008;28;20232;-60
2022/10/10 09:49:16;;;;;;;8.70;1.43;;;14.10;99.90;;;;;;5072390;28;20673;-60
2022/10/10 09:51:43;;;;;;;11.55;1.42;;;13.90;99.90;;;;;;5055948;28;20197;-60
2022/10/10 09:54:09;;;;;;;11.20;1.85;;;14.10;99.90;;;;;;5051877;28;20259;-59
2022/10/10 09:56:44;;;;;;;9.55;1.77;;;14.10;99.90;;;;;;5054877;28;20737;-60
2022/10/10 09:59:37;;;;;;;7.78;1.55;;;14.60;99.90;;;;;;5068846;28;20207;-59
2022/10/10 10:02:12;;;;;;;14.18;1.80;;;14.60;99.90;;;;;;5072155;28;20628;-60
2022/10/10 10:04:38;;;;;;;11.45;2.05;;;;;;;;;;5072107;28;20167;-58
2022/10/10 10:07:18;;;;;;;9.52;2.00;;;14.70;99.90;;;;;;5071622;28;20667;-58
2022/10/10 10:10:15;;;;;;;21.90;2.28;;;14.80;99.90;;;;;;5067099;28;20218;-59
2022/10/10 10:12:43;;;;;;;18.70;2.70;;;14.90;99.90;;;;;;5063535;28;20252;-59
2022/10/10 10:15:21;;;;;;;14.35;1.83;;;14.90;99.90;;;;;;5063060;28;20209;-59
2022/10/10 10:18:12;;;;;;;10.68;1.75;;;15.10;99.90;;;;;;5059204;28;20188;-59
2022/10/10 10:20:43;;;;;;;11.55;1.85;;;15.40;99.90;;;;;;5051716;28;20176;-59
2022/10/10 10:24:00;;;;;;;10.15;1.80;;;15.70;99.90;;;;;;5051569;28;21231;-59
2022/10/10 10:26:41;;;;;;;12.18;1.80;;;17.00;99.90;;;;;;5032384;28;20309;-59
2022/10/10 10:29:26;;;;;;;8.75;1.92;;;16.50;99.90;;;;;;5067792;28;20519;-62
2022/10/10 10:32:15;;;;;;;13.82;1.70;;;16.80;99.90;;;;;;5070648;28;20286;-60
2022/10/10 10:35:33;;;;;;;18.17;2.10;;;16.50;99.90;;;;;;5069699;28;20181;-60
2022/10/10 10:38:13;;;;;;;10.98;1.90;;;18.70;99.90;;;;;;5006232;28;20212;-60
2022/10/10 10:40:48;;;;;;;9.98;1.83;;;20.50;99.90;;;;;;5053514;28;20173;-60
2022/10/10 10:43:23;;;;;;;12.23;1.95;;;19.20;99.90;;;;;;5071297;28;20168;-60
2022/10/10 10:45:51;;;;;;;11.65;2.72;;;19.20;99.90;;;;;;5071048;28;20168;-60
2022/10/10 10:48:27;;;;;;;8.63;1.60;;;18.60;99.90;;;;;;5071302;28;20176;-59
2022/10/10 10:51:13;;;;;;;14.00;1.85;;;18.10;99.90;;;;;;5071168;28;20176;-59
2022/10/10 10:53:53;;;;;;;14.57;2.25;;;19.50;99.90;;;;;;5070579;28;20683;-59
2022/10/10 10:56:45;;;;;;;5.80;1.25;;;20.20;99.90;;;;;;5070073;28;20214;-59
2022/10/10 10:59:34;;;;;;;7.82;1.60;;;21.10;99.90;;;;;;5069233;28;20263;-60
2022/10/10 11:02:05;;;;;;;12.82;1.80;;;23.90;99.90;;;;;;5067126;28;20165;-60
2022/10/10 11:04:51;;;;;;;10.60;2.40;;;24.40;99.90;;;;;;5065156;28;20191;-60
2022/10/10 11:07:18;;;;;;;7.30;1.75;;;24.70;99.90;;;;;;5060433;28;20682;-60
2022/10/10 11:09:53;;;;;;;12.25;2.00;;;25.40;99.90;;;;;;5070609;28;20195;-60
2022/10/10 11:12:24;;;;;;;6.90;1.70;;;25.80;99.90;;;;;;5070456;28;20208;-60
2022/10/10 11:14:55;;;;;;;9.30;1.90;;;26.60;99.90;;;;;;5058740;28;20221;-60
2022/10/10 11:17:27;;;;;;;8.50;1.60;;;27.40;99.90;;;;;;5061228;28;20172;-61
2022/10/10 11:20:19;;;;;;;13.10;1.60;;;27.40;99.90;;;;;;5058963;28;20702;-63
2022/10/10 11:22:51;;;;;;;7.28;1.90;;;28.10;99.90;;;;;;5059901;28;20281;-61
2022/10/10 11:25:27;;;;;;;9.60;2.00;;;28.60;99.90;;;;;;5068969;28;20204;-61
2022/10/10 11:28:31;;;;;;;10.25;2.13;;;27.20;99.90;;;;;;5070155;28;20164;-61
2022/10/10 11:31:01;;;;;;;8.27;1.80;;;28.60;99.90;;;;;;5069280;28;20656;-61
2022/10/10 11:33:35;;;;;;;8.30;2.10;;;28.80;99.90;;;;;;5065412;28;20212;-61
2022/10/10 11:36:22;;;;;;;11.10;2.20;;;28.80;99.90;;;;;;5058333;28;20367;-65
2022/10/10 11:39:04;;;;;;;7.93;2.28;;;29.30;99.90;;;;;;5069972;28;20168;-62
2022/10/10 11:41:45;;;;;;;11.82;2.78;;;29.10;99.90;;;;;;5070122;28;20172;-61
2022/10/10 11:44:27;;;;;;;10.30;2.30;;;29.10;99.90;;;;;;5068624;28;20465;-61
2022/10/10 11:46:52;;;;;;;7.35;2.10;;;29.60;99.90;;;;;;5051779;28;20176;-61
2022/10/10 11:49:30;;;;;;;9.82;2.20;;;27.90;99.90;;;;;;5059150;28;20233;-61
2022/10/10 11:51:56;;;;;;;15.32;2.38;;;27.90;99.90;;;;;;5069483;28;20212;-61
2022/10/10 11:54:53;;;;;;;7.18;2.13;;;29.40;99.90;;;;;;5069530;28;20171;-61
2022/10/10 11:57:49;;;;;;;8.50;2.10;;;29.40;99.90;;;;;;5054433;28;20275;-61
2022/10/10 12:00:16;;;;;;;7.22;1.77;;;28.40;99.90;;;;;;5069574;28;20161;-61
2022/10/10 12:02:44;;;;;;;8.23;1.60;;;27.70;99.90;;;;;;5068266;28;20165;-61
2022/10/10 12:05:23;;;;;;;7.82;1.98;;;28.30;99.90;;;;;;5068433;28;20246;-61
2022/10/10 12:07:55;;;;;;;7.15;2.08;;;27.20;99.90;;;;;;5068136;28;20730;-60
2022/10/10 12:10:30;;;;;;;8.25;1.92;;;27.60;99.90;;;;;;5067877;28;20169;-61
2022/10/10 12:13:01;;;;;;;6.15;1.63;;;27.90;99.90;;;;;;5067832;28;20215;-61
2022/10/10 12:15:34;;;;;;;8.90;1.92;;;28.20;99.90;;;;;;5068531;28;20212;-61
2022/10/10 12:18:00;;;;;;;8.48;1.92;;;28.10;99.90;;;;;;5069900;28;20184;-61
2022/10/10 12:20:25;;;;;;;8.50;2.00;;;28.20;99.90;;;;;;5070479;28;20240;-61
2022/10/10 12:23:18;;;;;;;9.00;1.90;;;28.20;99.90;;;;;;5073014;28;20643;-61
2022/10/10 12:25:46;;;;;;;10.93;2.55;;;28.70;99.90;;;;;;5073862;28;20378;-61
2022/10/10 12:28:11;;;;;;;9.15;1.70;;;29.10;99.90;;;;;;5074065;28;20172;-60
2022/10/10 12:31:06;;;;;;;8.05;2.00;;;29.30;99.90;;;;;;5073814;28;20563;-60
2022/10/10 12:33:32;;;;;;;7.40;1.60;;;28.90;99.90;;;;;;5073434;28;20678;-60
2022/10/10 12:36:19;;;;;;;7.90;1.90;;;29.00;99.90;;;;;;5073562;28;20183;-60
2022/10/10 12:39:06;;;;;;;9.07;2.17;;;29.40;99.90;;;;;;5073518;28;20411;-60
2022/10/10 12:41:41;;;;;;;7.90;1.85;;;28.50;99.90;;;;;;5073803;28;20168;-60
2022/10/10 12:44:43;;;;;;;6.63;1.70;;;28.70;99.90;;;;;;5073722;28;20194;-60
2022/10/10 12:47:14;;;;;;;7.15;2.08;;;28.90;99.90;;;;;;5073791;28;20178;-60
2022/10/10 12:49:54;;;;;;;6.07;1.77;;;29.20;99.90;;;;;;5073215;28;20167;-60
2022/10/10 12:52:36;;;;;;;10.88;1.90;;;28.70;99.90;;;;;;5072888;28;20203;-60
2022/10/10 12:55:06;;;;;;;9.27;1.60;;;28.30;99.90;;;;;;5072991;28;20188;-60
2022/10/10 12:57:44;;;;;;;7.65;2.00;;;29.00;99.90;;;;;;5073441;28;20297;-61
2022/10/10 13:00:19;;;;;;;10.88;1.60;;;29.20;99.90;;;;;;5072182;28;20176;-61
2022/10/10 13:02:50;;;;;;;7.03;1.80;;;30.40;99.90;;;;;;5073055;28;20173;-60
2022/10/10 13:05:23;;;;;;;6.75;1.63;;;30.00;99.90;;;;;;5072200;28;20180;-60
2022/10/10 13:07:50;;;;;;;7.85;2.17;;;29.00;99.90;;;;;;5073149;28;20237;-60
2022/10/10 13:10:25;;;;;;;6.63;1.70;;;28.70;99.90;;;;;;5062587;28;20271;-60